Share

Nagarote, Nicaragua

3:07 PM CST on April 23, 2014 (GMT -0600)
Augusto Cesar Sandino (MNMG) Elev 184 ft | 12.14 °N, 86.17 °W | Change Station

Current weather conditions updated 7 minutes ago

Scattered Clouds
Scattered Clouds
95 °F
Feels Like 100 °F
N
12
Wind Variable Wind from East
Sunrise 5:29 AM
Sunset 5:59 PM
Moon Waning Crescent

Today is forecast to be nearly the same temperature as yesterday.

Pressure 29.74 in
Visibility 6.2 miles
Clouds Few 2600 ft
Scattered Clouds 30000 ft
Heat Index 100 °F
Dew Point 68 °F
Humidity 41%
Rainfall 0.00 in
Snow Depth Not available.
UV 6 out of 16
Pollen Not available.
Air Quality Not available.
Flu Activity Not available.
METAR MNMG 232100Z 09010KT 9999 FEW026 SCT300 35/20 Q1007 A2974 NOSIG

More Conditions Fewer Conditions

Pressure 29.74 in
Visibility 6.2 miles
Clouds Few 2600 ft
Scattered Clouds 30000 ft
Heat Index 100 °F
Dew Point 68 °F
Humidity 41%
Rainfall 0.00 in
Snow Depth Not available.
UV 6 out of 16
Pollen Not available.
Air Quality Not available.
Flu Activity Not available.
METAR MNMG 232100Z 09010KT 9999 FEW026 SCT300 35/20 Q1007 A2974 NOSIG

More Conditions Fewer Conditions

10-Day Weather Forecast

Almanac

Astronomy

Apr. 23, 2014 Rise Set
Actual Time 5:29 AM CST 5:59 PM CST
Civil Twilight 5:08 AM CST 6:21 PM CST
Nautical Twilight 4:42 AM CST 6:46 PM CST
Astronomical Twilight 4:17 AM CST 7:12 PM CST
Moon 12:58 AM CST 1:05 PM CST
Length of Visible Light 13h 12m
Length of Day
12h 29m
Tomorrow will be 0m 36s longer.
Waning Crescent, 33% of the Moon is Illuminated
Today
Waning Crescent
Apr 29
New
May 6
First Quarter
May 14
Full
May 21
Last Quarter

Today's Extremes

Country Highs Country Lows

Community

  • Stunning Sunrise
    Stunning Sunrise
  • spring flowers
    spring flowers
  • Earth Day Spectrum Ove' Blue
    Earth Day Spectrum Ove' Blue
  • BARN B&W
    BARN B&W
  • April Sunset
    April Sunset

WunderPhotos

Upload Photos

1,704,412 photos uploaded!

WunderBlogs® & News

Nearby

Snow Depth

Not available.

Coastal Water Temperatures

Place Temperature
No Stations Reporting

Earthquake Activity

City Distance Mag. Time & Date
No recent earthquake activity has been reported nearby.
Minimum magnitude displayed is 2.5.

Nearby Weather Stations

There are no personal weather stations in this area.

What do you think?

We're not finished. Please let us know what you like, what you don't like, and what you are still missing.